sensor_id;sensor_type;location;lat;lon;timestamp;pressure;altitude;pressure_sealevel;temperature;humidity
85735;BME280;76179;42.316;22.856;2024-03-29T00:01:09;94251.03;;;9.59;55.94
85735;BME280;76179;42.316;22.856;2024-03-29T00:03:34;94251.09;;;9.55;55.64
85735;BME280;76179;42.316;22.856;2024-03-29T00:06:00;94249.91;;;9.56;55.66
85735;BME280;76179;42.316;22.856;2024-03-29T00:08:26;94243.56;;;9.47;56.23
85735;BME280;76179;42.316;22.856;2024-03-29T00:10:52;94238.66;;;9.42;56.29
85735;BME280;76179;42.316;22.856;2024-03-29T00:13:17;94249.69;;;9.51;56.94
85735;BME280;76179;42.316;22.856;2024-03-29T00:15:45;94243.47;;;9.50;56.71
85735;BME280;76179;42.316;22.856;2024-03-29T00:18:11;94241.97;;;9.33;57.37
85735;BME280;76179;42.316;22.856;2024-03-29T00:20:36;94231.81;;;9.21;56.86
85735;BME280;76179;42.316;22.856;2024-03-29T00:23:02;94226.69;;;9.23;56.60
85735;BME280;76179;42.316;22.856;2024-03-29T00:25:27;94240.84;;;9.31;57.36
85735;BME280;76179;42.316;22.856;2024-03-29T00:27:53;94227.47;;;9.23;56.92
85735;BME280;76179;42.316;22.856;2024-03-29T00:30:19;94235.78;;;9.33;57.06
85735;BME280;76179;42.316;22.856;2024-03-29T00:32:44;94243.09;;;9.36;56.85
85735;BME280;76179;42.316;22.856;2024-03-29T00:35:10;94229.81;;;9.21;56.74
85735;BME280;76179;42.316;22.856;2024-03-29T00:37:35;94260.28;;;9.45;57.37
85735;BME280;76179;42.316;22.856;2024-03-29T00:40:01;94252.06;;;9.33;56.53
85735;BME280;76179;42.316;22.856;2024-03-29T00:42:26;94242.22;;;9.22;57.15
85735;BME280;76179;42.316;22.856;2024-03-29T00:44:52;94232.56;;;9.05;57.38
85735;BME280;76179;42.316;22.856;2024-03-29T00:47:17;94274.31;;;9.27;57.24
85735;BME280;76179;42.316;22.856;2024-03-29T00:49:43;94263.63;;;9.04;57.06
85735;BME280;76179;42.316;22.856;2024-03-29T00:52:08;94269.22;;;8.97;57.95
85735;BME280;76179;42.316;22.856;2024-03-29T00:54:34;94264.63;;;8.94;58.01
85735;BME280;76179;42.316;22.856;2024-03-29T00:56:59;94271.94;;;8.97;57.50
85735;BME280;76179;42.316;22.856;2024-03-29T00:59:25;94271.59;;;8.95;57.60
85735;BME280;76179;42.316;22.856;2024-03-29T01:01:50;94273.72;;;9.04;57.21
85735;BME280;76179;42.316;22.856;2024-03-29T01:04:16;94254.78;;;9.00;57.03
85735;BME280;76179;42.316;22.856;2024-03-29T01:06:42;94258.97;;;9.05;57.46
85735;BME280;76179;42.316;22.856;2024-03-29T01:09:08;94272.25;;;9.15;57.33
85735;BME280;76179;42.316;22.856;2024-03-29T01:11:37;94284.13;;;9.21;56.83
85735;BME280;76179;42.316;22.856;2024-03-29T01:14:03;94279.31;;;9.29;56.24
85735;BME280;76179;42.316;22.856;2024-03-29T01:16:29;94281.00;;;9.39;56.27
85735;BME280;76179;42.316;22.856;2024-03-29T01:18:54;94252.31;;;9.22;56.06
85735;BME280;76179;42.316;22.856;2024-03-29T01:21:20;94274.13;;;9.35;55.28
85735;BME280;76179;42.316;22.856;2024-03-29T01:23:46;94277.69;;;9.32;55.57
85735;BME280;76179;42.316;22.856;2024-03-29T01:26:11;94289.31;;;9.48;56.07
85735;BME280;76179;42.316;22.856;2024-03-29T01:28:38;94290.44;;;9.51;56.74
85735;BME280;76179;42.316;22.856;2024-03-29T01:31:04;94291.19;;;9.35;57.10
85735;BME280;76179;42.316;22.856;2024-03-29T01:33:30;94285.94;;;9.44;56.25
85735;BME280;76179;42.316;22.856;2024-03-29T01:35:58;94280.41;;;9.48;56.93
85735;BME280;76179;42.316;22.856;2024-03-29T01:38:24;94277.94;;;9.53;55.85
85735;BME280;76179;42.316;22.856;2024-03-29T01:40:49;94258.44;;;9.42;54.87
85735;BME280;76179;42.316;22.856;2024-03-29T01:43:15;94281.75;;;9.56;55.92
85735;BME280;76179;42.316;22.856;2024-03-29T01:45:41;94303.66;;;9.65;55.38
85735;BME280;76179;42.316;22.856;2024-03-29T01:48:09;94275.81;;;9.45;55.99
85735;BME280;76179;42.316;22.856;2024-03-29T01:50:36;94284.13;;;9.54;56.94
85735;BME280;76179;42.316;22.856;2024-03-29T01:53:04;94297.22;;;9.59;56.39
85735;BME280;76179;42.316;22.856;2024-03-29T01:55:31;94273.53;;;9.43;56.47
85735;BME280;76179;42.316;22.856;2024-03-29T01:57:57;94281.78;;;9.40;57.43
85735;BME280;76179;42.316;22.856;2024-03-29T02:00:23;94283.47;;;9.34;56.60
85735;BME280;76179;42.316;22.856;2024-03-29T02:02:49;94270.06;;;9.10;57.26
85735;BME280;76179;42.316;22.856;2024-03-29T02:05:14;94303.66;;;9.16;57.20
85735;BME280;76179;42.316;22.856;2024-03-29T02:07:41;94274.91;;;9.03;57.77
85735;BME280;76179;42.316;22.856;2024-03-29T02:10:10;94294.50;;;9.10;57.77
85735;BME280;76179;42.316;22.856;2024-03-29T02:12:38;94296.09;;;9.08;57.29
85735;BME280;76179;42.316;22.856;2024-03-29T02:15:04;94279.38;;;8.93;58.27
85735;BME280;76179;42.316;22.856;2024-03-29T02:17:29;94263.56;;;8.72;57.96
85735;BME280;76179;42.316;22.856;2024-03-29T02:19:55;94304.53;;;8.77;58.36
85735;BME280;76179;42.316;22.856;2024-03-29T02:22:22;94307.25;;;8.41;59.07
85735;BME280;76179;42.316;22.856;2024-03-29T02:24:49;94306.53;;;8.37;58.88
85735;BME280;76179;42.316;22.856;2024-03-29T02:27:15;94313.56;;;8.35;59.05
85735;BME280;76179;42.316;22.856;2024-03-29T02:29:41;94310.97;;;8.28;60.05
85735;BME280;76179;42.316;22.856;2024-03-29T02:32:06;94321.53;;;8.22;59.60
85735;BME280;76179;42.316;22.856;2024-03-29T02:34:32;94323.53;;;7.98;59.80
85735;BME280;76179;42.316;22.856;2024-03-29T02:36:57;94311.53;;;7.76;60.81
85735;BME280;76179;42.316;22.856;2024-03-29T02:39:24;94331.28;;;7.77;61.02
85735;BME280;76179;42.316;22.856;2024-03-29T02:41:50;94330.41;;;7.60;61.71
85735;BME280;76179;42.316;22.856;2024-03-29T02:44:16;94336.94;;;7.39;61.92
85735;BME280;76179;42.316;22.856;2024-03-29T02:46:42;94345.00;;;7.19;62.07
85735;BME280;76179;42.316;22.856;2024-03-29T02:49:08;94365.94;;;7.39;62.73
85735;BME280;76179;42.316;22.856;2024-03-29T02:51:34;94364.66;;;7.47;62.36
85735;BME280;76179;42.316;22.856;2024-03-29T02:54:00;94370.72;;;7.31;62.67
85735;BME280;76179;42.316;22.856;2024-03-29T02:56:25;94377.03;;;7.21;62.76
85735;BME280;76179;42.316;22.856;2024-03-29T02:58:52;94387.34;;;7.29;62.76
85735;BME280;76179;42.316;22.856;2024-03-29T03:01:18;94375.16;;;7.18;62.88
85735;BME280;76179;42.316;22.856;2024-03-29T03:03:43;94369.03;;;7.14;62.57
85735;BME280;76179;42.316;22.856;2024-03-29T03:06:09;94384.16;;;7.11;62.55
85735;BME280;76179;42.316;22.856;2024-03-29T03:08:34;94395.41;;;7.06;62.76
85735;BME280;76179;42.316;22.856;2024-03-29T03:11:19;94398.47;;;7.12;63.48
85735;BME280;76179;42.316;22.856;2024-03-29T03:13:44;94402.16;;;6.94;62.81
85735;BME280;76179;42.316;22.856;2024-03-29T03:16:10;94426.16;;;6.92;63.14
85735;BME280;76179;42.316;22.856;2024-03-29T03:18:35;94425.97;;;7.07;64.09
85735;BME280;76179;42.316;22.856;2024-03-29T03:21:01;94424.03;;;7.07;64.45
85735;BME280;76179;42.316;22.856;2024-03-29T03:23:26;94436.66;;;6.87;63.30
85735;BME280;76179;42.316;22.856;2024-03-29T03:28:21;94435.69;;;6.70;64.46
85735;BME280;76179;42.316;22.856;2024-03-29T03:30:50;94432.44;;;6.82;65.40
85735;BME280;76179;42.316;22.856;2024-03-29T03:33:16;94390.94;;;6.66;65.24
85735;BME280;76179;42.316;22.856;2024-03-29T03:35:44;94436.47;;;7.01;64.13
85735;BME280;76179;42.316;22.856;2024-03-29T03:38:10;94441.09;;;7.04;65.29
85735;BME280;76179;42.316;22.856;2024-03-29T03:40:37;94436.56;;;6.94;64.37
85735;BME280;76179;42.316;22.856;2024-03-29T03:43:03;94450.78;;;7.02;64.49
85735;BME280;76179;42.316;22.856;2024-03-29T03:45:33;94462.31;;;7.06;64.75
85735;BME280;76179;42.316;22.856;2024-03-29T03:47:58;94463.13;;;7.03;64.45
85735;BME280;76179;42.316;22.856;2024-03-29T03:50:24;94469.41;;;6.96;63.62
85735;BME280;76179;42.316;22.856;2024-03-29T03:52:49;94467.88;;;6.95;63.89
85735;BME280;76179;42.316;22.856;2024-03-29T03:55:15;94470.22;;;6.93;64.20
85735;BME280;76179;42.316;22.856;2024-03-29T03:57:40;94478.00;;;6.87;64.15
85735;BME280;76179;42.316;22.856;2024-03-29T04:00:06;94464.69;;;6.70;65.45
85735;BME280;76179;42.316;22.856;2024-03-29T04:02:32;94483.06;;;6.82;64.96
85735;BME280;76179;42.316;22.856;2024-03-29T04:04:57;94484.50;;;6.93;64.97
85735;BME280;76179;42.316;22.856;2024-03-29T04:07:23;94480.81;;;6.80;64.10
85735;BME280;76179;42.316;22.856;2024-03-29T04:09:52;94464.00;;;6.62;63.89
85735;BME280;76179;42.316;22.856;2024-03-29T04:12:18;94477.31;;;6.80;63.57
85735;BME280;76179;42.316;22.856;2024-03-29T04:14:43;94478.81;;;6.84;64.41
85735;BME280;76179;42.316;22.856;2024-03-29T04:17:09;94478.19;;;6.73;63.67
85735;BME280;76179;42.316;22.856;2024-03-29T04:19:35;94493.72;;;6.66;63.85
85735;BME280;76179;42.316;22.856;2024-03-29T04:22:00;94493.69;;;6.28;64.76
85735;BME280;76179;42.316;22.856;2024-03-29T04:24:28;94508.72;;;6.33;65.45
85735;BME280;76179;42.316;22.856;2024-03-29T04:26:53;94508.66;;;6.36;64.80
85735;BME280;76179;42.316;22.856;2024-03-29T04:29:19;94504.53;;;6.25;65.51
85735;BME280;76179;42.316;22.856;2024-03-29T04:31:45;94511.03;;;6.31;66.10
85735;BME280;76179;42.316;22.856;2024-03-29T04:34:11;94495.72;;;6.17;65.41
85735;BME280;76179;42.316;22.856;2024-03-29T04:36:36;94486.59;;;6.00;65.46
85735;BME280;76179;42.316;22.856;2024-03-29T04:39:02;94506.72;;;5.96;66.36
85735;BME280;76179;42.316;22.856;2024-03-29T04:41:27;94505.94;;;5.95;67.08
85735;BME280;76179;42.316;22.856;2024-03-29T04:43:53;94529.00;;;6.07;66.88
85735;BME280;76179;42.316;22.856;2024-03-29T04:46:18;94526.28;;;6.10;67.57
85735;BME280;76179;42.316;22.856;2024-03-29T04:48:44;94523.13;;;6.15;67.41
85735;BME280;76179;42.316;22.856;2024-03-29T04:51:11;94523.38;;;6.32;67.07
85735;BME280;76179;42.316;22.856;2024-03-29T04:53:38;94526.41;;;6.37;67.51
85735;BME280;76179;42.316;22.856;2024-03-29T04:56:04;94532.59;;;6.38;66.98
85735;BME280;76179;42.316;22.856;2024-03-29T04:58:30;94537.94;;;6.45;66.68
85735;BME280;76179;42.316;22.856;2024-03-29T05:00:56;94520.53;;;6.49;67.39
85735;BME280;76179;42.316;22.856;2024-03-29T05:03:22;94526.16;;;6.66;66.17
85735;BME280;76179;42.316;22.856;2024-03-29T05:05:52;94532.19;;;6.80;66.67
85735;BME280;76179;42.316;22.856;2024-03-29T05:08:18;94551.28;;;7.04;67.25
85735;BME280;76179;42.316;22.856;2024-03-29T05:10:45;94556.53;;;7.14;66.34
85735;BME280;76179;42.316;22.856;2024-03-29T05:13:11;94566.44;;;7.28;65.44
85735;BME280;76179;42.316;22.856;2024-03-29T05:15:37;94552.97;;;7.21;64.34
85735;BME280;76179;42.316;22.856;2024-03-29T05:18:03;94574.03;;;7.40;64.35
85735;BME280;76179;42.316;22.856;2024-03-29T05:20:29;94572.88;;;7.41;63.75
85735;BME280;76179;42.316;22.856;2024-03-29T05:22:54;94571.16;;;7.54;62.78
85735;BME280;76179;42.316;22.856;2024-03-29T05:25:20;94568.59;;;7.74;63.31
85735;BME280;76179;42.316;22.856;2024-03-29T05:27:45;94567.75;;;7.77;63.04
85735;BME280;76179;42.316;22.856;2024-03-29T05:30:11;94578.00;;;7.93;63.49
85735;BME280;76179;42.316;22.856;2024-03-29T05:32:38;94568.53;;;8.04;62.61
85735;BME280;76179;42.316;22.856;2024-03-29T05:35:04;94562.66;;;8.09;62.56
85735;BME280;76179;42.316;22.856;2024-03-29T05:37:29;94582.09;;;8.31;61.93
85735;BME280;76179;42.316;22.856;2024-03-29T05:39:55;94588.16;;;8.39;62.37
85735;BME280;76179;42.316;22.856;2024-03-29T05:42:30;94598.69;;;8.60;62.36
85735;BME280;76179;42.316;22.856;2024-03-29T05:44:56;94603.56;;;8.69;62.36
85735;BME280;76179;42.316;22.856;2024-03-29T05:47:22;94607.66;;;8.80;61.08
85735;BME280;76179;42.316;22.856;2024-03-29T05:49:47;94615.28;;;8.89;60.53
85735;BME280;76179;42.316;22.856;2024-03-29T05:52:13;94624.69;;;9.04;60.40
85735;BME280;76179;42.316;22.856;2024-03-29T05:54:45;94613.75;;;9.08;60.74
85735;BME280;76179;42.316;22.856;2024-03-29T05:57:11;94624.09;;;9.16;60.03
85735;BME280;76179;42.316;22.856;2024-03-29T05:59:37;94592.44;;;9.06;60.39
85735;BME280;76179;42.316;22.856;2024-03-29T06:02:03;94619.41;;;9.17;59.60
85735;BME280;76179;42.316;22.856;2024-03-29T06:04:29;94623.34;;;9.36;59.62
85735;BME280;76179;42.316;22.856;2024-03-29T06:07:05;94611.22;;;9.40;59.56
85735;BME280;76179;42.316;22.856;2024-03-29T06:09:30;94611.34;;;9.53;59.28
85735;BME280;76179;42.316;22.856;2024-03-29T06:11:58;94613.31;;;9.52;58.87
85735;BME280;76179;42.316;22.856;2024-03-29T06:14:24;94621.66;;;9.61;58.27
85735;BME280;76179;42.316;22.856;2024-03-29T06:17:09;94631.31;;;9.66;58.86
85735;BME280;76179;42.316;22.856;2024-03-29T06:19:54;94609.16;;;9.68;58.28
85735;BME280;76179;42.316;22.856;2024-03-29T06:22:25;94627.31;;;9.90;58.54
85735;BME280;76179;42.316;22.856;2024-03-29T06:24:54;94627.50;;;9.99;58.91
85735;BME280;76179;42.316;22.856;2024-03-29T06:27:26;94634.59;;;10.13;56.67
85735;BME280;76179;42.316;22.856;2024-03-29T06:29:52;94619.81;;;10.14;57.52
85735;BME280;76179;42.316;22.856;2024-03-29T06:32:17;94628.19;;;10.39;55.51
85735;BME280;76179;42.316;22.856;2024-03-29T06:34:47;94624.38;;;10.53;56.24
85735;BME280;76179;42.316;22.856;2024-03-29T06:37:13;94625.44;;;10.59;55.95
85735;BME280;76179;42.316;22.856;2024-03-29T06:39:39;94634.78;;;10.74;55.48
85735;BME280;76179;42.316;22.856;2024-03-29T06:42:04;94631.38;;;10.87;53.75
85735;BME280;76179;42.316;22.856;2024-03-29T06:44:33;94618.09;;;10.89;55.27
85735;BME280;76179;42.316;22.856;2024-03-29T06:46:59;94611.72;;;10.95;54.80
85735;BME280;76179;42.316;22.856;2024-03-29T06:49:24;94629.56;;;11.12;55.98
85735;BME280;76179;42.316;22.856;2024-03-29T06:51:50;94624.38;;;11.02;55.04
85735;BME280;76179;42.316;22.856;2024-03-29T06:54:15;94626.44;;;11.14;54.51
85735;BME280;76179;42.316;22.856;2024-03-29T06:56:41;94616.94;;;11.18;54.47
85735;BME280;76179;42.316;22.856;2024-03-29T06:59:07;94647.38;;;11.46;54.73
85735;BME280;76179;42.316;22.856;2024-03-29T07:01:33;94640.63;;;11.50;53.75
85735;BME280;76179;42.316;22.856;2024-03-29T07:03:58;94651.16;;;11.65;53.80
85735;BME280;76179;42.316;22.856;2024-03-29T07:06:24;94653.66;;;11.88;53.00
85735;BME280;76179;42.316;22.856;2024-03-29T07:08:50;94656.19;;;11.95;51.88
85735;BME280;76179;42.316;22.856;2024-03-29T07:11:15;94666.25;;;12.11;52.81
85735;BME280;76179;42.316;22.856;2024-03-29T07:13:41;94651.91;;;12.23;52.44
85735;BME280;76179;42.316;22.856;2024-03-29T07:16:06;94655.06;;;12.34;53.56
85735;BME280;76179;42.316;22.856;2024-03-29T07:18:35;94653.66;;;12.42;51.75
85735;BME280;76179;42.316;22.856;2024-03-29T07:21:00;94648.53;;;12.57;51.96
85735;BME280;76179;42.316;22.856;2024-03-29T07:23:26;94658.34;;;12.67;51.06
85735;BME280;76179;42.316;22.856;2024-03-29T07:26:02;94666.97;;;12.78;50.89
85735;BME280;76179;42.316;22.856;2024-03-29T07:28:28;94669.06;;;12.99;50.90
85735;BME280;76179;42.316;22.856;2024-03-29T07:30:54;94652.84;;;13.05;50.23
85735;BME280;76179;42.316;22.856;2024-03-29T07:33:20;94661.38;;;13.20;50.19
85735;BME280;76179;42.316;22.856;2024-03-29T07:35:49;94634.81;;;13.20;48.91
85735;BME280;76179;42.316;22.856;2024-03-29T07:38:14;94652.25;;;13.35;48.81
85735;BME280;76179;42.316;22.856;2024-03-29T07:40:49;94651.44;;;13.47;49.21
85735;BME280;76179;42.316;22.856;2024-03-29T07:43:14;94655.69;;;13.61;49.19
85735;BME280;76179;42.316;22.856;2024-03-29T07:45:41;94653.31;;;13.72;48.70
85735;BME280;76179;42.316;22.856;2024-03-29T07:48:14;94646.84;;;13.79;48.02
85735;BME280;76179;42.316;22.856;2024-03-29T07:50:44;94623.56;;;13.74;48.27
85735;BME280;76179;42.316;22.856;2024-03-29T07:53:11;94638.44;;;13.95;48.08
85735;BME280;76179;42.316;22.856;2024-03-29T07:55:38;94633.34;;;14.06;47.66
85735;BME280;76179;42.316;22.856;2024-03-29T07:58:04;94652.31;;;14.22;47.53
85735;BME280;76179;42.316;22.856;2024-03-29T08:00:33;94671.47;;;14.44;48.69
85735;BME280;76179;42.316;22.856;2024-03-29T08:02:59;94674.59;;;14.64;47.25
85735;BME280;76179;42.316;22.856;2024-03-29T08:05:25;94655.03;;;14.75;47.06
85735;BME280;76179;42.316;22.856;2024-03-29T08:07:51;94669.72;;;14.99;45.64
85735;BME280;76179;42.316;22.856;2024-03-29T08:10:16;94658.78;;;15.18;45.84
85735;BME280;76179;42.316;22.856;2024-03-29T08:12:42;94654.06;;;15.18;45.81
85735;BME280;76179;42.316;22.856;2024-03-29T08:15:07;94661.13;;;15.37;44.63
85735;BME280;76179;42.316;22.856;2024-03-29T08:17:34;94664.50;;;15.51;44.50
85735;BME280;76179;42.316;22.856;2024-03-29T08:20:00;94672.00;;;15.59;45.04
85735;BME280;76179;42.316;22.856;2024-03-29T08:22:25;94657.84;;;15.61;44.60
85735;BME280;76179;42.316;22.856;2024-03-29T08:24:51;94666.38;;;15.81;44.76
85735;BME280;76179;42.316;22.856;2024-03-29T08:27:18;94609.97;;;15.62;45.61
85735;BME280;76179;42.316;22.856;2024-03-29T08:29:43;94669.88;;;16.18;42.83
85735;BME280;76179;42.316;22.856;2024-03-29T08:32:09;94642.84;;;16.26;42.18
85735;BME280;76179;42.316;22.856;2024-03-29T08:34:36;94658.38;;;16.38;42.84
85735;BME280;76179;42.316;22.856;2024-03-29T08:37:02;94641.91;;;16.38;42.64
85735;BME280;76179;42.316;22.856;2024-03-29T08:39:31;94645.22;;;16.51;42.15
85735;BME280;76179;42.316;22.856;2024-03-29T08:41:59;94640.59;;;16.57;41.70
85735;BME280;76179;42.316;22.856;2024-03-29T08:44:27;94648.19;;;16.80;41.48
85735;BME280;76179;42.316;22.856;2024-03-29T08:46:53;94623.28;;;16.84;41.67
85735;BME280;76179;42.316;22.856;2024-03-29T08:49:22;94633.84;;;17.09;40.46
85735;BME280;76179;42.316;22.856;2024-03-29T08:51:47;94623.31;;;17.08;40.48
85735;BME280;76179;42.316;22.856;2024-03-29T08:54:13;94641.63;;;17.35;39.19
85735;BME280;76179;42.316;22.856;2024-03-29T08:56:38;94626.47;;;17.39;39.17
85735;BME280;76179;42.316;22.856;2024-03-29T08:59:06;94624.25;;;17.52;39.18
85735;BME280;76179;42.316;22.856;2024-03-29T09:01:41;94621.84;;;17.69;38.68
85735;BME280;76179;42.316;22.856;2024-03-29T09:04:07;94621.22;;;17.89;37.65
85735;BME280;76179;42.316;22.856;2024-03-29T09:06:37;94624.84;;;17.95;37.07
85735;BME280;76179;42.316;22.856;2024-03-29T09:09:04;94627.41;;;17.98;37.15
85735;BME280;76179;42.316;22.856;2024-03-29T09:11:30;94626.00;;;18.03;39.61
85735;BME280;76179;42.316;22.856;2024-03-29T09:13:55;94616.69;;;18.15;37.19
85735;BME280;76179;42.316;22.856;2024-03-29T09:16:23;94604.34;;;18.25;35.51
85735;BME280;76179;42.316;22.856;2024-03-29T09:18:48;94609.94;;;18.45;36.28
85735;BME280;76179;42.316;22.856;2024-03-29T09:21:14;94606.34;;;18.69;35.23
85735;BME280;76179;42.316;22.856;2024-03-29T09:23:39;94602.03;;;18.82;37.33
85735;BME280;76179;42.316;22.856;2024-03-29T09:26:07;94596.72;;;18.79;35.35
85735;BME280;76179;42.316;22.856;2024-03-29T09:28:33;94589.47;;;18.81;36.55
85735;BME280;76179;42.316;22.856;2024-03-29T09:31:00;94579.19;;;18.82;35.98
85735;BME280;76179;42.316;22.856;2024-03-29T09:33:27;94586.41;;;18.94;34.42
85735;BME280;76179;42.316;22.856;2024-03-29T09:35:52;94573.25;;;19.04;35.33
85735;BME280;76179;42.316;22.856;2024-03-29T09:38:19;94561.06;;;19.10;33.84
85735;BME280;76179;42.316;22.856;2024-03-29T09:40:45;94573.59;;;19.11;33.43
85735;BME280;76179;42.316;22.856;2024-03-29T09:43:12;94541.50;;;19.14;35.41
85735;BME280;76179;42.316;22.856;2024-03-29T09:45:40;94550.25;;;19.47;35.08
85735;BME280;76179;42.316;22.856;2024-03-29T09:48:07;94553.72;;;19.68;33.69
85735;BME280;76179;42.316;22.856;2024-03-29T09:50:36;94551.09;;;19.79;32.68
85735;BME280;76179;42.316;22.856;2024-03-29T09:53:04;94545.00;;;19.75;33.13
85735;BME280;76179;42.316;22.856;2024-03-29T09:55:30;94510.41;;;19.54;33.12
85735;BME280;76179;42.316;22.856;2024-03-29T09:57:56;94564.66;;;19.83;32.16
85735;BME280;76179;42.316;22.856;2024-03-29T10:00:23;94548.75;;;19.72;32.75
85735;BME280;76179;42.316;22.856;2024-03-29T10:02:50;94548.97;;;19.94;32.56
85735;BME280;76179;42.316;22.856;2024-03-29T10:05:18;94558.25;;;20.17;32.76
85735;BME280;76179;42.316;22.856;2024-03-29T10:07:46;94544.72;;;20.25;31.68
85735;BME280;76179;42.316;22.856;2024-03-29T10:10:12;94539.00;;;20.28;31.84
85735;BME280;76179;42.316;22.856;2024-03-29T10:12:37;94524.47;;;20.33;32.79
85735;BME280;76179;42.316;22.856;2024-03-29T10:15:03;94534.53;;;20.36;32.26
85735;BME280;76179;42.316;22.856;2024-03-29T10:17:50;94512.94;;;20.35;30.36
85735;BME280;76179;42.316;22.856;2024-03-29T10:20:19;94527.38;;;20.50;29.65
85735;BME280;76179;42.316;22.856;2024-03-29T10:22:46;94508.53;;;20.54;30.14
85735;BME280;76179;42.316;22.856;2024-03-29T10:25:15;94527.78;;;20.74;31.08
85735;BME280;76179;42.316;22.856;2024-03-29T10:27:41;94529.38;;;20.87;30.17
85735;BME280;76179;42.316;22.856;2024-03-29T10:30:08;94480.75;;;20.74;32.57
85735;BME280;76179;42.316;22.856;2024-03-29T10:32:40;94509.00;;;20.90;31.13
85735;BME280;76179;42.316;22.856;2024-03-29T10:35:06;94512.03;;;20.92;30.52
85735;BME280;76179;42.316;22.856;2024-03-29T10:37:32;94503.78;;;21.03;28.78
85735;BME280;76179;42.316;22.856;2024-03-29T10:40:06;94500.47;;;20.99;28.73
85735;BME280;76179;42.316;22.856;2024-03-29T10:42:32;94519.25;;;21.21;29.63
85735;BME280;76179;42.316;22.856;2024-03-29T10:45:01;94511.19;;;21.23;30.12
85735;BME280;76179;42.316;22.856;2024-03-29T10:47:28;94513.66;;;21.15;28.33
85735;BME280;76179;42.316;22.856;2024-03-29T10:49:56;94514.56;;;21.49;29.13
85735;BME280;76179;42.316;22.856;2024-03-29T10:52:25;94515.88;;;21.70;28.06
85735;BME280;76179;42.316;22.856;2024-03-29T10:54:51;94518.19;;;21.83;26.71
85735;BME280;76179;42.316;22.856;2024-03-29T10:57:23;94520.50;;;22.01;28.38
85735;BME280;76179;42.316;22.856;2024-03-29T11:02:57;94518.00;;;22.48;27.63
85735;BME280;76179;42.316;22.856;2024-03-29T11:05:30;94511.94;;;22.66;26.00
85735;BME280;76179;42.316;22.856;2024-03-29T11:07:56;94511.94;;;22.55;26.14
85735;BME280;76179;42.316;22.856;2024-03-29T11:10:29;94506.91;;;22.76;25.15
85735;BME280;76179;42.316;22.856;2024-03-29T11:13:12;94510.91;;;22.86;27.70
85735;BME280;76179;42.316;22.856;2024-03-29T11:15:41;94494.53;;;22.82;25.16
85735;BME280;76179;42.316;22.856;2024-03-29T11:18:09;94502.06;;;22.93;25.13
85735;BME280;76179;42.316;22.856;2024-03-29T11:20:35;94488.41;;;23.00;25.17
85735;BME280;76179;42.316;22.856;2024-03-29T11:23:08;94495.69;;;23.20;23.93
85735;BME280;76179;42.316;22.856;2024-03-29T11:25:43;94479.03;;;23.09;24.58
85735;BME280;76179;42.316;22.856;2024-03-29T11:28:12;94482.03;;;23.17;23.51
85735;BME280;76179;42.316;22.856;2024-03-29T11:30:50;94486.53;;;23.36;24.60
85735;BME280;76179;42.316;22.856;2024-03-29T11:33:33;94488.94;;;23.62;23.59
85735;BME280;76179;42.316;22.856;2024-03-29T11:36:22;94478.72;;;23.82;22.02
85735;BME280;76179;42.316;22.856;2024-03-29T11:38:54;94474.16;;;23.84;23.38
85735;BME280;76179;42.316;22.856;2024-03-29T11:41:25;94464.78;;;23.87;23.48
85735;BME280;76179;42.316;22.856;2024-03-29T11:43:53;94461.69;;;23.96;21.93
85735;BME280;76179;42.316;22.856;2024-03-29T11:46:19;94455.13;;;23.94;21.83
85735;BME280;76179;42.316;22.856;2024-03-29T11:48:45;94458.09;;;24.01;21.58
85735;BME280;76179;42.316;22.856;2024-03-29T11:51:14;94469.19;;;24.42;23.30
85735;BME280;76179;42.316;22.856;2024-03-29T11:53:41;94477.44;;;24.78;28.18
85735;BME280;76179;42.316;22.856;2024-03-29T11:56:07;94468.75;;;25.11;24.21
85735;BME280;76179;42.316;22.856;2024-03-29T11:58:33;94479.38;;;25.13;22.88
85735;BME280;76179;42.316;22.856;2024-03-29T12:01:00;94462.31;;;25.41;22.45
85735;BME280;76179;42.316;22.856;2024-03-29T12:03:28;94472.91;;;25.66;22.00
85735;BME280;76179;42.316;22.856;2024-03-29T12:05:55;94455.84;;;25.89;20.96
85735;BME280;76179;42.316;22.856;2024-03-29T12:08:26;94462.72;;;26.20;20.90
85735;BME280;76179;42.316;22.856;2024-03-29T12:10:52;94447.72;;;25.91;21.32
85735;BME280;76179;42.316;22.856;2024-03-29T12:13:18;94464.22;;;26.39;18.99
85735;BME280;76179;42.316;22.856;2024-03-29T12:15:44;94461.88;;;26.43;20.72
85735;BME280;76179;42.316;22.856;2024-03-29T12:18:10;94456.69;;;26.34;21.07
85735;BME280;76179;42.316;22.856;2024-03-29T12:20:37;94462.38;;;26.42;19.79
85735;BME280;76179;42.316;22.856;2024-03-29T12:23:05;94451.63;;;26.33;19.26
85735;BME280;76179;42.316;22.856;2024-03-29T12:25:31;94460.00;;;26.78;20.79
85735;BME280;76179;42.316;22.856;2024-03-29T12:27:58;94457.13;;;26.97;21.77
85735;BME280;76179;42.316;22.856;2024-03-29T12:30:24;94455.63;;;27.22;18.64
85735;BME280;76179;42.316;22.856;2024-03-29T12:33:17;94453.88;;;27.45;18.82
85735;BME280;76179;42.316;22.856;2024-03-29T12:35:50;94445.63;;;27.87;18.61
85735;BME280;76179;42.316;22.856;2024-03-29T12:38:19;94428.78;;;28.00;17.71
85735;BME280;76179;42.316;22.856;2024-03-29T12:40:46;94423.88;;;27.93;17.37
85735;BME280;76179;42.316;22.856;2024-03-29T12:43:20;94433.88;;;28.22;17.45
85735;BME280;76179;42.316;22.856;2024-03-29T12:45:46;94445.47;;;28.26;19.14
85735;BME280;76179;42.316;22.856;2024-03-29T12:50:39;94439.31;;;28.69;17.76
85735;BME280;76179;42.316;22.856;2024-03-29T12:53:09;94447.19;;;28.99;16.59
85735;BME280;76179;42.316;22.856;2024-03-29T12:55:37;94444.28;;;29.41;18.75
85735;BME280;76179;42.316;22.856;2024-03-29T12:58:07;94435.25;;;29.78;16.67
85735;BME280;76179;42.316;22.856;2024-03-29T13:00:35;94431.91;;;29.80;16.84
85735;BME280;76179;42.316;22.856;2024-03-29T13:03:01;94438.59;;;29.69;16.53